Time;durP1;ratioP1;P1;durP2;ratioP2;P2;SDS_P1;SDS_P2;PMS_P1;PMS_P2;Temp;Humidity;BMP_temperature;BMP_pressure;BME280_temperature;BME280_humidity;BME280_pressure;Samples;Min_cycle;Max_cycle;Signal;HPM_P1;HPM_P2
2023/09/16 00:02:02;;;;;;;13.88;6.63;;;;;;;15.03;100.00;101353.06;5194057;28;20832;-77
2023/09/16 00:04:32;;;;;;;12.90;6.07;;;;;;;15.01;100.00;101343.47;5192660;28;20102;-78
2023/09/16 00:07:03;;;;;;;10.00;7.53;;;;;;;15.02;100.00;101345.16;5192538;28;20159;-78
2023/09/16 00:09:34;;;;;;;12.23;7.22;;;;;;;15.00;100.00;101349.88;5192963;28;20029;-78
2023/09/16 00:12:05;;;;;;;12.68;6.80;;;;;;;15.00;100.00;101344.47;5193049;28;20014;-77
2023/09/16 00:14:36;;;;;;;10.93;6.30;;;;;;;14.99;100.00;101343.63;5195190;28;20614;-78
2023/09/16 00:17:08;;;;;;;10.40;6.60;;;;;;;14.95;100.00;101342.31;5195734;28;20056;-78
2023/09/16 00:19:39;;;;;;;10.68;6.70;;;;;;;14.93;100.00;101346.22;5194810;28;20030;-78
2023/09/16 00:22:10;;;;;;;12.65;6.90;;;;;;;14.88;100.00;101338.66;5193623;28;20083;-77
2023/09/16 00:24:40;;;;;;;13.50;7.65;;;;;;;14.87;100.00;101337.00;5192375;28;20510;-78
2023/09/16 00:27:11;;;;;;;10.68;7.40;;;;;;;14.83;100.00;101342.94;5196158;28;20108;-77
2023/09/16 00:29:41;;;;;;;13.10;7.22;;;;;;;14.78;100.00;101335.38;5191936;28;20021;-78
2023/09/16 00:32:12;;;;;;;11.52;7.18;;;;;;;14.75;100.00;101339.28;5194763;28;20085;-78
2023/09/16 00:34:43;;;;;;;13.60;8.00;;;;;;;14.73;100.00;101335.09;5193500;28;20025;-78
2023/09/16 00:37:13;;;;;;;12.18;7.70;;;;;;;14.68;100.00;101329.41;5189558;28;20540;-78
2023/09/16 00:39:44;;;;;;;13.38;7.50;;;;;;;14.64;100.00;101345.13;5194565;28;20033;-78
2023/09/16 00:42:15;;;;;;;12.70;7.82;;;;;;;14.59;100.00;101336.72;5195692;28;20391;-78
2023/09/16 00:44:46;;;;;;;11.73;7.72;;;;;;;14.56;100.00;101334.41;5194395;28;20033;-78
2023/09/16 00:47:17;;;;;;;12.85;7.30;;;;;;;14.53;100.00;101342.00;5192178;28;20041;-77
2023/09/16 00:49:47;;;;;;;9.35;6.80;;;;;;;14.47;100.00;101343.53;5192678;28;20084;-78
2023/09/16 00:52:18;;;;;;;13.65;7.85;;;;;;;14.44;100.00;101338.47;5195676;28;20435;-76
2023/09/16 00:54:51;;;;;;;14.88;7.63;;;;;;;14.40;100.00;101339.84;5192245;28;20529;-78
2023/09/16 00:57:22;;;;;;;14.43;7.75;;;;;;;14.36;100.00;101328.59;5196095;28;20116;-78
2023/09/16 00:59:53;;;;;;;15.65;8.07;;;;;;;14.34;100.00;101330.63;5189658;28;20506;-77
2023/09/16 01:02:24;;;;;;;10.65;7.22;;;;;;;14.32;100.00;101334.53;5194858;28;20045;-77
2023/09/16 01:04:56;;;;;;;13.45;8.07;;;;;;;14.28;100.00;101336.75;5193583;28;20109;-77
2023/09/16 01:07:27;;;;;;;13.43;8.20;;;;;;;14.25;100.00;101324.44;5196429;28;20083;-76
2023/09/16 01:09:58;;;;;;;19.75;9.85;;;;;;;14.21;100.00;101327.69;5199421;28;20026;-77
2023/09/16 01:12:28;;;;;;;12.43;7.93;;;;;;;14.18;100.00;101334.28;5198711;28;20022;-78
2023/09/16 01:14:59;;;;;;;12.20;7.22;;;;;;;14.17;100.00;101332.59;5200790;28;20029;-78
2023/09/16 01:17:34;;;;;;;12.80;8.50;;;;;;;14.17;100.00;101326.38;5201204;28;20029;-79
2023/09/16 01:20:06;;;;;;;;;;;;;;;14.12;100.00;101326.91;5200414;28;20025;-77
2023/09/16 01:22:39;;;;;;;13.55;7.75;;;;;;;14.08;100.00;101320.16;5195002;28;19963;-79
2023/09/16 01:25:10;;;;;;;14.73;8.82;;;;;;;14.04;100.00;101331.47;5200333;28;20499;-78
2023/09/16 01:27:41;;;;;;;17.25;8.93;;;;;;;14.06;100.00;101327.59;5197265;28;20124;-78
2023/09/16 01:30:13;;;;;;;13.70;8.30;;;;;;;14.05;100.00;101334.00;5194735;28;20100;-79
2023/09/16 01:32:51;;;;;;;15.18;8.85;;;;;;;14.02;100.00;101331.69;5199525;28;20032;-77
2023/09/16 01:35:23;;;;;;;15.07;8.50;;;;;;;13.99;100.00;101332.00;5194845;28;20037;-78
2023/09/16 01:37:56;;;;;;;14.80;8.43;;;;;;;13.97;100.00;101332.19;5193194;28;20084;-78
2023/09/16 01:40:27;;;;;;;12.48;8.00;;;;;;;13.95;100.00;101325.28;5196110;28;20052;-77
2023/09/16 01:42:59;;;;;;;11.88;7.55;;;;;;;13.93;100.00;101325.47;5200320;28;20107;-78
2023/09/16 01:45:41;;;;;;;11.43;8.18;;;;;;;13.92;100.00;101320.25;5199031;28;20025;-78
2023/09/16 01:48:14;;;;;;;15.73;9.18;;;;;;;13.89;100.00;101317.91;5197805;28;20360;-78
2023/09/16 01:50:45;;;;;;;13.88;9.15;;;;;;;13.86;100.00;101312.88;5202223;28;20237;-78
2023/09/16 01:53:16;;;;;;;13.43;8.82;;;;;;;13.85;100.00;101313.88;5201436;28;20017;-78
2023/09/16 01:55:46;;;;;;;16.40;8.63;;;;;;;13.82;100.00;101311.56;5195578;28;20433;-78
2023/09/16 01:58:17;;;;;;;15.48;10.07;;;;;;;13.81;100.00;101315.28;5195834;28;20021;-79
2023/09/16 02:00:48;;;;;;;18.27;9.48;;;;;;;13.81;100.00;101313.41;5196546;28;20029;-77
2023/09/16 02:03:18;;;;;;;16.25;9.80;;;;;;;13.79;100.00;101314.59;5194324;28;20049;-78
2023/09/16 02:05:49;;;;;;;15.55;10.57;;;;;;;13.80;100.00;101313.56;5195790;28;20549;-78
2023/09/16 02:08:19;;;;;;;16.48;10.68;;;;;;;13.77;100.00;101313.94;5196903;28;20121;-78
2023/09/16 02:10:50;;;;;;;13.63;9.40;;;;;;;13.76;100.00;101321.19;5197395;28;20112;-78
2023/09/16 02:13:24;;;;;;;21.20;10.13;;;;;;;13.74;100.00;101312.41;5191196;28;20032;-78
2023/09/16 02:15:55;;;;;;;14.18;9.63;;;;;;;13.72;100.00;101309.91;5200651;28;20029;-78
2023/09/16 02:18:25;;;;;;;15.38;10.38;;;;;;;13.72;100.00;101314.47;5191645;28;20034;-78
2023/09/16 02:20:56;;;;;;;18.77;9.60;;;;;;;13.67;100.00;101312.28;5197300;28;20036;-79
2023/09/16 02:23:27;;;;;;;20.17;10.27;;;;;;;13.67;100.00;101314.16;5196932;28;20036;-79
2023/09/16 02:26:00;;;;;;;15.38;10.93;;;;;;;13.63;100.00;101310.13;5195576;28;20104;-79
2023/09/16 02:28:31;;;;;;;17.58;10.30;;;;;;;13.61;100.00;101313.00;5204863;28;20543;-78
2023/09/16 02:31:01;;;;;;;10.50;7.72;;;;;;;13.61;100.00;101317.53;5197736;28;20109;-78
2023/09/16 02:33:32;;;;;;;7.68;6.00;;;;;;;13.57;100.00;101317.03;5193872;28;20018;-78
2023/09/16 02:36:04;;;;;;;8.90;5.97;;;;;;;13.54;100.00;101319.25;5200666;28;20028;-78
2023/09/16 02:38:34;;;;;;;10.02;7.50;;;;;;;13.53;100.00;101320.25;5202729;28;20032;-76
2023/09/16 02:41:05;;;;;;;11.15;8.07;;;;;;;13.51;100.00;101322.31;5200620;28;20021;-77
2023/09/16 02:43:35;;;;;;;15.25;9.73;;;;;;;13.46;100.00;101320.13;5200485;28;20040;-77
2023/09/16 02:46:05;;;;;;;13.77;9.10;;;;;;;13.48;100.00;101320.78;5198522;28;20070;-77
2023/09/16 02:48:36;;;;;;;14.90;9.15;;;;;;;13.45;100.00;101313.91;5199420;28;20499;-78
2023/09/16 02:51:09;;;;;;;11.43;7.53;;;;;;;13.45;100.00;101318.41;5196893;28;20099;-77
2023/09/16 02:53:40;;;;;;;9.57;7.35;;;;;;;13.43;100.00;101315.91;5191317;28;20100;-78
2023/09/16 02:56:10;;;;;;;9.02;6.05;;;;;;;13.41;100.00;101314.41;5199851;28;20163;-77
2023/09/16 02:58:40;;;;;;;18.02;9.18;;;;;;;13.37;100.00;101316.59;5195346;28;20441;-78
2023/09/16 03:01:11;;;;;;;12.55;7.60;;;;;;;13.36;100.00;101316.78;5194027;28;20487;-77
2023/09/16 03:03:43;;;;;;;12.88;8.63;;;;;;;13.32;100.00;101310.91;5188286;28;20029;-77
2023/09/16 03:06:14;;;;;;;16.23;8.63;;;;;;;13.30;100.00;101310.22;5185401;28;20041;-78
2023/09/16 03:08:44;;;;;;;15.77;10.35;;;;;;;13.29;100.00;101308.53;5182500;28;20147;-78
2023/09/16 03:11:15;;;;;;;14.95;9.30;;;;;;;13.29;100.00;101313.09;5178892;28;20030;-78
2023/09/16 03:13:45;;;;;;;16.55;10.02;;;;;;;13.27;100.00;101310.56;5200049;28;20029;-78
2023/09/16 03:16:20;;;;;;;14.50;9.85;;;;;;;13.29;100.00;101311.22;5190060;28;20538;-81
2023/09/16 03:18:52;;;;;;;14.83;9.83;;;;;;;13.28;100.00;101297.94;5191138;28;20022;-80
2023/09/16 03:21:24;;;;;;;15.25;9.60;;;;;;;13.27;100.00;101302.50;5190746;28;20273;-81
2023/09/16 03:23:55;;;;;;;15.98;8.80;;;;;;;13.25;100.00;101296.41;5194759;28;20624;-82
2023/09/16 03:26:26;;;;;;;14.93;8.63;;;;;;;13.20;100.00;101291.53;5183858;28;20037;-83
2023/09/16 03:28:56;;;;;;;14.25;8.23;;;;;;;13.18;100.00;101290.84;5192589;28;20022;-81
2023/09/16 03:31:27;;;;;;;14.13;8.85;;;;;;;13.16;100.00;101284.81;5191499;28;20095;-81
2023/09/16 03:33:57;;;;;;;12.75;9.30;;;;;;;13.12;100.00;101283.47;5198398;28;20026;-82
2023/09/16 03:36:28;;;;;;;14.50;8.65;;;;;;;13.07;100.00;101283.16;5197921;28;20113;-81
2023/09/16 03:38:58;;;;;;;17.27;9.82;;;;;;;13.03;100.00;101280.97;5184167;28;20032;-82
2023/09/16 03:41:29;;;;;;;14.50;9.48;;;;;;;13.00;100.00;101281.28;5188266;28;20677;-80
2023/09/16 03:43:59;;;;;;;17.05;10.07;;;;;;;12.95;100.00;101285.38;5188697;28;20022;-80
2023/09/16 03:46:31;;;;;;;12.98;8.95;;;;;;;12.91;100.00;101277.81;5191573;28;20026;-81
2023/09/16 03:49:02;;;;;;;11.18;7.90;;;;;;;12.88;100.00;101280.81;5200028;28;20025;-81
2023/09/16 03:51:34;;;;;;;12.60;8.88;;;;;;;12.85;100.00;101273.94;5197519;28;20013;-80
2023/09/16 03:54:06;;;;;;;10.57;7.80;;;;;;;12.83;100.00;101275.09;5184595;28;20090;-80
2023/09/16 03:56:37;;;;;;;11.35;7.35;;;;;;;12.78;100.00;101281.00;5189154;28;20032;-81
2023/09/16 03:59:07;;;;;;;11.35;7.35;;;;;;;12.77;100.00;101278.50;5190884;28;20101;-82
2023/09/16 04:01:38;;;;;;;12.02;7.60;;;;;;;12.73;100.00;101282.53;5193210;28;20033;-81
2023/09/16 04:04:08;;;;;;;11.60;7.55;;;;;;;12.71;100.00;101274.63;5189229;28;20032;-84
2023/09/16 04:06:39;;;;;;;9.23;7.13;;;;;;;12.68;100.00;101278.50;5188981;28;20156;-82
2023/09/16 04:09:09;;;;;;;9.98;6.78;;;;;;;12.68;100.00;101270.41;5187274;28;20167;-80
2023/09/16 04:11:40;;;;;;;10.20;6.72;;;;;;;12.66;100.00;101277.81;5192173;28;20108;-80
2023/09/16 04:14:10;;;;;;;9.02;6.57;;;;;;;12.63;100.00;101270.06;5194170;28;20025;-81
2023/09/16 04:16:41;;;;;;;11.73;6.85;;;;;;;12.62;100.00;101271.09;5187367;28;20037;-81
2023/09/16 04:19:12;;;;;;;11.40;7.40;;;;;;;12.65;100.00;101268.06;5185523;28;20037;-81
2023/09/16 04:21:43;;;;;;;9.07;6.63;;;;;;;12.65;100.00;101268.06;5188595;28;20026;-82
2023/09/16 04:24:13;;;;;;;12.45;8.32;;;;;;;12.64;100.00;101257.47;5190625;28;20025;-81
2023/09/16 04:26:44;;;;;;;12.27;7.45;;;;;;;12.64;100.00;101265.53;5191446;28;20053;-81
2023/09/16 04:29:14;;;;;;;16.98;7.10;;;;;;;12.61;100.00;101258.66;5197162;28;20021;-81
2023/09/16 04:31:45;;;;;;;11.65;7.72;;;;;;;12.61;100.00;101272.13;5194717;28;20043;-81
2023/09/16 04:34:15;;;;;;;13.32;7.47;;;;;;;12.59;100.00;101260.66;5191830;28;20021;-82
2023/09/16 04:36:46;;;;;;;14.80;7.40;;;;;;;12.58;100.00;101264.38;5196318;28;20021;-82
2023/09/16 04:39:17;;;;;;;9.38;6.65;;;;;;;12.57;100.00;101265.38;5197372;28;20045;-82
2023/09/16 04:41:47;;;;;;;10.00;6.70;;;;;;;12.56;100.00;101268.25;5194106;28;20104;-83
2023/09/16 04:44:18;;;;;;;9.50;5.82;;;;;;;12.54;100.00;101264.88;5201511;28;20095;-82
2023/09/16 04:46:55;;;;;;;9.35;5.80;;;;;;;12.54;100.00;101267.56;5194985;28;20112;-83
2023/09/16 04:49:26;;;;;;;10.73;7.07;;;;;;;12.54;100.00;101265.69;5197977;28;20104;-82
2023/09/16 04:52:34;;;;;;;12.43;8.00;;;;;;;12.54;100.00;101271.09;5186663;28;20176;-84
2023/09/16 04:55:09;;;;;;;18.30;8.82;;;;;;;12.51;100.00;101267.91;5193109;28;20040;-83
2023/09/16 04:57:41;;;;;;;12.52;8.48;;;;;;;12.49;100.00;101269.91;5191002;28;20022;-82
2023/09/16 05:00:12;;;;;;;14.15;8.60;;;;;;;12.47;100.00;101264.72;5201681;28;20368;-83
2023/09/16 05:02:48;;;;;;;17.20;9.73;;;;;;;12.50;100.00;101266.22;5195073;28;20087;-82
2023/09/16 05:05:18;;;;;;;17.25;9.98;;;;;;;12.51;100.00;101260.69;5193114;28;20664;-82
2023/09/16 05:07:49;;;;;;;15.82;9.93;;;;;;;12.51;100.00;101257.16;5198542;28;20035;-82
2023/09/16 05:10:20;;;;;;;17.63;9.48;;;;;;;12.51;100.00;101265.22;5196086;28;20033;-82
2023/09/16 05:12:51;;;;;;;17.40;11.23;;;;;;;12.52;100.00;101256.97;5194646;28;20026;-82
2023/09/16 05:15:22;;;;;;;16.48;10.40;;;;;;;12.51;100.00;101265.22;5195541;28;20025;-83
2023/09/16 05:17:53;;;;;;;14.63;10.27;;;;;;;12.51;100.00;101266.06;5200038;28;20057;-82
2023/09/16 05:20:23;;;;;;;20.70;10.77;;;;;;;12.53;100.00;101258.66;5198439;28;20033;-82
2023/09/16 05:22:54;;;;;;;22.10;11.43;;;;;;;12.54;100.00;101260.31;5201915;28;20022;-82
2023/09/16 05:25:25;;;;;;;17.50;11.57;;;;;;;12.55;100.00;101259.34;5201962;28;20025;-84
2023/09/16 05:27:56;;;;;;;22.67;12.10;;;;;;;12.59;100.00;101257.97;5196915;28;20032;-84
2023/09/16 05:30:27;;;;;;;18.63;11.18;;;;;;;12.60;100.00;101253.41;5193465;28;20018;-82
2023/09/16 05:32:57;;;;;;;16.38;10.98;;;;;;;12.66;100.00;101266.22;5170106;28;20080;-81
2023/09/16 05:35:28;;;;;;;17.90;11.88;;;;;;;12.71;100.00;101261.16;5205924;28;20414;-82
2023/09/16 05:37:58;;;;;;;25.52;13.85;;;;;;;12.76;100.00;101257.97;5193247;28;20033;-83
2023/09/16 05:40:29;;;;;;;24.45;12.98;;;;;;;12.82;100.00;101255.44;5206030;28;20117;-83
2023/09/16 05:42:59;;;;;;;28.17;15.18;;;;;;;12.89;100.00;101260.97;5198775;28;20061;-83
2023/09/16 05:45:31;;;;;;;21.98;14.15;;;;;;;12.94;100.00;101256.72;5200741;28;20021;-82
2023/09/16 05:48:02;;;;;;;21.98;13.73;;;;;;;12.98;100.00;101261.78;5194611;28;20041;-82
2023/09/16 05:50:33;;;;;;;24.20;14.35;;;;;;;12.96;100.00;101254.72;5195455;28;20492;-88
2023/09/16 05:53:03;;;;;;;31.92;16.95;;;;;;;13.05;100.00;101260.94;5193146;28;20040;-82
2023/09/16 05:55:38;;;;;;;29.92;17.95;;;;;;;13.09;100.00;101254.16;5195273;28;20045;-82
2023/09/16 05:58:11;;;;;;;27.20;15.98;;;;;;;13.22;100.00;101256.38;5204182;28;20022;-84
2023/09/16 06:00:42;;;;;;;29.48;17.52;;;;;;;13.30;100.00;101255.47;5188847;28;20057;-85
2023/09/16 06:03:12;;;;;;;30.08;16.60;;;;;;;13.43;100.00;101264.69;5195381;28;20125;-81
2023/09/16 06:05:43;;;;;;;30.50;17.20;;;;;;;13.60;100.00;101264.63;5188002;28;20083;-87
2023/09/16 06:08:14;;;;;;;31.88;18.27;;;;;;;13.95;100.00;101265.94;5200948;28;20379;-83
2023/09/16 06:10:45;;;;;;;29.52;18.45;;;;;;;14.48;100.00;101272.34;5197511;28;20037;-83
2023/09/16 06:13:16;;;;;;;25.48;15.77;;;;;;;14.98;100.00;101281.69;5194318;28;20600;-82
2023/09/16 06:15:47;;;;;;;24.08;15.13;;;;;;;15.40;100.00;101280.19;5191613;28;20057;-83
2023/09/16 06:18:17;;;;;;;24.27;14.93;;;;;;;15.63;100.00;101272.84;5193401;28;20033;-85
2023/09/16 06:20:48;;;;;;;35.58;14.48;;;;;;;15.85;100.00;101281.84;5193526;28;20033;-85
2023/09/16 06:23:18;;;;;;;19.80;13.32;;;;;;;16.16;100.00;101272.59;5200286;28;20021;-84
2023/09/16 06:25:50;;;;;;;19.88;12.80;;;;;;;16.44;100.00;101280.78;5197684;28;20406;-89
2023/09/16 06:28:20;;;;;;;20.10;12.85;;;;;;;16.78;100.00;101271.97;5201436;28;20082;-84
2023/09/16 06:30:51;;;;;;;18.77;11.45;;;;;;;17.12;100.00;101278.44;5197822;28;20033;-82
2023/09/16 06:33:21;;;;;;;21.08;11.02;;;;;;;17.35;100.00;101279.81;5183288;28;20179;-78
2023/09/16 06:35:52;;;;;;;19.50;12.57;;;;;;;17.52;100.00;101274.06;5200838;28;20063;-82
2023/09/16 06:38:23;;;;;;;17.35;11.27;;;;;;;17.60;100.00;101272.03;5170709;28;20120;-83
2023/09/16 06:40:53;;;;;;;18.45;12.02;;;;;;;17.88;100.00;101278.44;5194895;28;20154;-83
2023/09/16 06:43:24;;;;;;;23.15;11.73;;;;;;;18.17;100.00;101277.25;5204167;28;20022;-82
2023/09/16 06:45:54;;;;;;;16.67;10.88;;;;;;;18.37;100.00;101278.97;5199441;28;20037;-82
2023/09/16 06:48:25;;;;;;;18.00;10.07;;;;;;;18.49;100.00;101291.94;5197528;28;20021;-82
2023/09/16 06:50:56;;;;;;;18.00;10.75;;;;;;;18.68;100.00;101287.56;5187291;28;20458;-81
2023/09/16 06:53:26;;;;;;;19.20;9.48;;;;;;;18.81;100.00;101290.28;5194010;28;20028;-83
2023/09/16 06:56:10;;;;;;;14.65;9.40;;;;;;;18.66;100.00;101292.34;5200477;28;20118;-83
2023/09/16 06:58:41;;;;;;;18.52;9.70;;;;;;;18.51;100.00;101289.84;5190097;28;20034;-81
2023/09/16 07:01:12;;;;;;;16.17;10.88;;;;;;;18.23;100.00;101296.28;5199313;28;20037;-81
2023/09/16 07:03:44;;;;;;;18.63;10.10;;;;;;;18.09;100.00;101291.84;5199257;28;20056;-83
2023/09/16 07:06:14;;;;;;;20.48;11.68;;;;;;;18.02;100.00;101296.41;5205114;28;20021;-81
2023/09/16 07:08:45;;;;;;;22.65;11.18;;;;;;;18.19;100.00;101300.44;5196953;28;20043;-82
2023/09/16 07:11:17;;;;;;;15.32;9.73;;;;;;;18.35;100.00;101300.06;5181328;28;20033;-83
2023/09/16 07:13:48;;;;;;;18.77;10.88;;;;;;;18.63;100.00;101296.34;5192807;28;20037;-83
2023/09/16 07:16:20;;;;;;;16.15;9.73;;;;;;;18.78;100.00;101294.28;5206220;28;20029;-84
2023/09/16 07:18:51;;;;;;;14.77;9.23;;;;;;;18.80;100.00;101286.75;5201508;28;20033;-84
2023/09/16 07:21:22;;;;;;;14.57;8.48;;;;;;;19.09;100.00;101295.50;5185853;28;20033;-83
2023/09/16 07:23:54;;;;;;;13.90;9.45;;;;;;;19.48;100.00;101294.59;5189808;28;20021;-83
2023/09/16 07:26:24;;;;;;;16.88;9.43;;;;;;;20.10;100.00;101301.25;5194114;28;20067;-82
2023/09/16 07:28:57;;;;;;;12.55;8.23;;;;;;;20.80;100.00;101295.75;5188513;28;20033;-81
2023/09/16 07:31:28;;;;;;;16.38;8.60;;;;;;;21.20;100.00;101292.66;5196641;28;20029;-82
2023/09/16 07:33:59;;;;;;;16.83;8.57;;;;;;;21.48;100.00;101283.13;5192239;28;20018;-82
2023/09/16 07:36:29;;;;;;;15.13;7.43;;;;;;;21.66;100.00;101285.84;5195811;28;20029;-83
2023/09/16 07:39:00;;;;;;;14.40;7.97;;;;;;;22.00;100.00;101292.56;5190673;28;20038;-82
2023/09/16 07:41:30;;;;;;;14.13;7.53;;;;;;;22.31;100.00;101291.50;5187822;28;20059;-83
2023/09/16 07:44:01;;;;;;;11.98;7.43;;;;;;;22.54;100.00;101298.94;5186177;28;20017;-83
2023/09/16 07:46:31;;;;;;;12.18;6.85;;;;;;;22.45;100.00;101301.19;5200707;28;20045;-82
2023/09/16 07:49:05;;;;;;;11.90;7.32;;;;;;;22.57;100.00;101289.44;5183961;28;20049;-83
2023/09/16 07:51:38;;;;;;;11.20;7.00;;;;;;;22.86;100.00;101291.25;5187075;28;20060;-83
2023/09/16 07:54:09;;;;;;;11.48;7.20;;;;;;;23.13;100.00;101293.53;5188561;28;20025;-82
2023/09/16 07:56:40;;;;;;;12.05;6.55;;;;;;;23.17;100.00;101284.59;5206639;28;20454;-82
2023/09/16 07:59:11;;;;;;;10.05;6.40;;;;;;;23.40;100.00;101302.94;5187757;28;20025;-82
2023/09/16 08:01:41;;;;;;;10.35;6.47;;;;;;;23.41;100.00;101299.09;5196078;28;20044;-82
2023/09/16 08:04:12;;;;;;;9.43;6.53;;;;;;;23.35;100.00;101294.59;5195738;28;20033;-82
2023/09/16 08:06:43;;;;;;;12.00;6.18;;;;;;;23.33;100.00;101304.94;5193515;28;20064;-82
2023/09/16 08:09:13;;;;;;;10.60;7.00;;;;;;;23.55;100.00;101307.06;5191178;28;20033;-83
2023/09/16 08:11:44;;;;;;;11.07;6.32;;;;;;;23.91;100.00;101301.28;5187282;28;20591;-83
2023/09/16 08:14:14;;;;;;;15.52;6.97;;;;;;;23.92;100.00;101296.63;5178258;28;20495;-83
2023/09/16 08:16:45;;;;;;;15.32;6.80;;;;;;;24.25;100.00;101304.13;5190249;28;20052;-82
2023/09/16 08:19:17;;;;;;;9.45;6.50;;;;;;;24.43;100.00;101303.91;5201555;28;20063;-82
2023/09/16 08:21:47;;;;;;;13.10;6.30;;;;;;;24.75;100.00;101308.81;5196278;28;20029;-82
2023/09/16 08:24:18;;;;;;;10.88;6.32;;;;;;;25.14;100.00;101311.66;5201310;28;20052;-82
2023/09/16 08:26:48;;;;;;;10.50;6.32;;;;;;;25.09;100.00;101319.81;5183282;28;20037;-83
2023/09/16 08:29:21;;;;;;;10.25;5.15;;;;;;;25.14;100.00;101325.41;5191260;28;20022;-82
2023/09/16 08:31:51;;;;;;;11.85;5.80;;;;;;;25.19;100.00;101320.81;5193746;28;20112;-82
2023/09/16 08:34:22;;;;;;;9.75;5.50;;;;;;;25.37;100.00;101319.72;5190958;28;20081;-83
2023/09/16 08:36:53;;;;;;;9.88;5.63;;;;;;;25.60;100.00;101328.78;5190512;28;20044;-83
2023/09/16 08:39:24;;;;;;;7.38;5.45;;;;;;;25.76;100.00;101331.53;5198412;28;20072;-84
2023/09/16 08:42:03;;;;;;;8.80;5.85;;;;;;;25.68;100.00;101331.94;5190625;28;20029;-85
2023/09/16 08:44:41;;;;;;;9.45;5.25;;;;;;;25.34;100.00;101335.84;5202875;28;20032;-80
2023/09/16 08:47:28;;;;;;;9.73;5.15;;;;;;;25.17;100.00;101333.13;5194198;28;20046;-86
2023/09/16 08:50:05;;;;;;;8.15;5.28;;;;;;;25.57;100.00;101333.72;5189896;28;20040;-86
2023/09/16 08:52:48;;;;;;;8.73;4.85;;;;;;;26.14;100.00;101334.44;5200463;28;20044;-83
2023/09/16 08:55:20;;;;;;;7.45;4.68;;;;;;;26.31;100.00;101332.44;5179198;28;20129;-84
2023/09/16 08:57:55;;;;;;;9.35;5.65;;;;;;;25.82;100.00;101330.50;5193980;28;20029;-85
2023/09/16 09:00:26;;;;;;;12.18;5.20;;;;;;;25.47;100.00;101330.84;5207744;28;20022;-86
2023/09/16 09:02:56;;;;;;;9.32;5.18;;;;;;;25.31;100.00;101329.78;5200388;28;20044;-84
2023/09/16 09:05:28;;;;;;;10.13;5.50;;;;;;;24.86;100.00;101335.38;5206550;28;20518;-87
2023/09/16 09:07:59;;;;;;;8.98;5.85;;;;;;;24.68;100.00;101338.34;5193910;28;20029;-87
2023/09/16 09:10:29;;;;;;;8.15;5.25;;;;;;;24.78;100.00;101333.88;5202107;28;20017;-86
2023/09/16 09:13:00;;;;;;;9.80;5.47;;;;;;;24.80;100.00;101336.38;5199641;28;20399;-85
2023/09/16 09:15:32;;;;;;;7.43;5.30;;;;;;;25.18;100.00;101332.06;5204076;28;20018;-82
2023/09/16 09:18:03;;;;;;;9.75;5.53;;;;;;;25.34;100.00;101331.19;5200488;28;20029;-82
2023/09/16 09:20:35;;;;;;;11.40;5.55;;;;;;;25.39;100.00;101345.00;5192672;28;20056;-83
2023/09/16 09:23:06;;;;;;;7.35;4.45;;;;;;;25.30;100.00;101346.50;5199250;28;20088;-82
2023/09/16 09:25:36;;;;;;;10.95;4.75;;;;;;;25.12;100.00;101353.09;5196427;28;20060;-82
2023/09/16 09:28:07;;;;;;;8.57;4.43;;;;;;;25.27;100.00;101349.75;5197866;28;20017;-82
2023/09/16 09:30:40;;;;;;;11.55;4.70;;;;;;;25.79;100.00;101354.91;5191572;28;20097;-83
2023/09/16 09:33:14;;;;;;;10.55;5.15;;;;;;;25.69;100.00;101354.72;5198771;28;20050;-85
2023/09/16 09:35:44;;;;;;;11.80;4.93;;;;;;;25.44;100.00;101361.53;5195644;28;20101;-84
2023/09/16 09:38:17;;;;;;;15.60;5.50;;;;;;;25.78;100.00;101353.25;5187588;28;20708;-83
2023/09/16 09:40:58;;;;;;;9.35;4.57;;;;;;;26.51;100.00;101360.16;5190835;28;20033;-88
2023/09/16 09:43:30;;;;;;;9.65;4.95;;;;;;;26.90;100.00;101359.94;5208627;28;20034;-82
2023/09/16 09:46:01;;;;;;;7.25;4.78;;;;;;;27.32;100.00;101348.19;5197795;28;20408;-83
2023/09/16 09:48:35;;;;;;;7.68;4.57;;;;;;;27.58;100.00;101355.47;5204665;28;20034;-85
2023/09/16 09:51:09;;;;;;;7.50;4.63;;;;;;;27.59;100.00;101351.63;5200596;28;20032;-82
2023/09/16 09:53:40;;;;;;;7.47;4.53;;;;;;;27.63;100.00;101349.19;5206750;28;20013;-85
2023/09/16 09:56:11;;;;;;;6.72;4.38;;;;;;;27.59;100.00;101351.63;5182219;28;20047;-86
2023/09/16 09:58:43;;;;;;;5.95;4.05;;;;;;;27.75;100.00;101348.97;5192998;28;20610;-84
2023/09/16 10:01:15;;;;;;;7.40;3.60;;;;;;;27.68;100.00;101338.16;5196433;28;20036;-93
2023/09/16 10:03:48;;;;;;;7.30;4.30;;;;;;;27.80;100.00;101338.78;5199785;28;20124;-86
2023/09/16 10:06:20;;;;;;;9.50;4.03;;;;;;;27.75;100.00;101351.72;5196169;28;20025;-84
2023/09/16 10:08:51;;;;;;;6.53;4.20;;;;;;;27.56;100.00;101334.78;5198709;28;20037;-84
2023/09/16 10:11:21;;;;;;;6.38;4.00;;;;;;;27.52;100.00;101344.72;5193916;28;20029;-86
2023/09/16 10:13:52;;;;;;;10.15;4.50;;;;;;;27.46;100.00;101343.88;5193219;28;20033;-85
2023/09/16 10:16:24;;;;;;;7.47;4.10;;;;;;;27.16;100.00;101329.88;5198856;28;20030;-84
2023/09/16 10:18:55;;;;;;;5.32;3.80;;;;;;;26.86;100.00;101336.81;5194302;28;20033;-83
2023/09/16 10:21:26;;;;;;;5.85;3.85;;;;;;;26.82;100.00;101338.41;5194316;28;20026;-84
2023/09/16 10:23:56;;;;;;;7.32;4.05;;;;;;;26.82;100.00;101325.50;5197267;28;20040;-83
2023/09/16 10:26:27;;;;;;;10.57;4.13;;;;;;;26.74;100.00;101334.22;5199841;28;20029;-84
2023/09/16 10:28:58;;;;;;;6.45;4.40;;;;;;;26.71;100.00;101332.00;5201510;28;20033;-83
2023/09/16 10:31:30;;;;;;;6.70;4.20;;;;;;;26.60;100.00;101328.31;5194102;28;20047;-84
2023/09/16 10:34:03;;;;;;;11.18;4.53;;;;;;;26.70;100.00;101326.75;5199209;28;20033;-85
2023/09/16 10:36:35;;;;;;;9.32;4.47;;;;;;;26.79;100.00;101319.66;5196340;28;20029;-84
2023/09/16 10:39:07;;;;;;;7.95;4.93;;;;;;;26.89;100.00;101336.25;5193405;28;20030;-84
2023/09/16 10:41:38;;;;;;;7.97;4.45;;;;;;;27.00;100.00;101329.72;5189058;28;20029;-84
2023/09/16 10:44:11;;;;;;;6.10;4.60;;;;;;;27.04;100.00;101330.03;5196985;28;20060;-85
2023/09/16 10:46:43;;;;;;;6.78;4.10;;;;;;;27.10;100.00;101318.81;5197480;28;20033;-84
2023/09/16 10:49:14;;;;;;;7.25;4.70;;;;;;;27.23;100.00;101319.47;5195394;28;20025;-84
2023/09/16 10:51:44;;;;;;;10.93;4.75;;;;;;;27.22;100.00;101326.09;5188235;28;20033;-83
2023/09/16 10:54:26;;;;;;;8.00;4.80;;;;;;;27.07;100.00;101319.38;5195195;28;20025;-82
2023/09/16 10:57:03;;;;;;;6.80;4.45;;;;;;;27.05;100.00;101320.69;5192374;28;20022;-83
2023/09/16 10:59:35;;;;;;;9.27;4.53;;;;;;;27.12;100.00;101320.50;5192732;28;20026;-84
2023/09/16 11:02:18;;;;;;;9.48;4.60;;;;;;;27.09;100.00;101313.59;5191793;28;20085;-83
2023/09/16 11:04:48;;;;;;;6.82;4.25;;;;;;;27.07;100.00;101311.13;5199027;28;20124;-82
2023/09/16 11:07:19;;;;;;;6.53;4.20;;;;;;;27.18;100.00;101302.91;5193134;28;20658;-83
2023/09/16 11:09:51;;;;;;;6.93;4.57;;;;;;;27.28;100.00;101306.56;5194421;28;20068;-83
2023/09/16 11:12:22;;;;;;;5.78;4.47;;;;;;;27.36;100.00;101305.19;5180110;28;20509;-79
2023/09/16 11:14:53;;;;;;;7.68;4.13;;;;;;;27.47;100.00;101298.66;5191916;28;20163;-79
2023/09/16 11:17:25;;;;;;;5.20;3.85;;;;;;;27.43;100.00;101294.78;5188423;28;20105;-80
2023/09/16 11:20:10;;;;;;;9.07;4.90;;;;;;;27.45;100.00;101289.00;5193296;28;20022;-79
2023/09/16 11:22:47;;;;;;;9.63;4.20;;;;;;;27.48;100.00;101283.78;5191779;28;20033;-77
2023/09/16 11:25:18;;;;;;;7.40;4.78;;;;;;;27.51;100.00;101282.41;5184954;28;20029;-78
2023/09/16 11:27:50;;;;;;;9.27;4.32;;;;;;;27.56;100.00;101290.69;5192615;28;20057;-78
2023/09/16 11:30:21;;;;;;;8.90;4.72;;;;;;;27.67;100.00;101280.56;5197192;28;20046;-79